createdAt,value
2018-06-03T00:00:00.952Z,95.40
2018-06-03T00:02:28.456Z,95.40
2018-06-03T00:04:55.936Z,95.40
2018-06-03T00:07:23.388Z,95.40
2018-06-03T00:09:50.945Z,95.40
2018-06-03T00:12:18.437Z,95.30
2018-06-03T00:14:45.901Z,95.40
2018-06-03T00:17:13.387Z,95.30
2018-06-03T00:19:40.839Z,95.30
2018-06-03T00:22:09.736Z,95.30
2018-06-03T00:24:37.188Z,95.40
2018-06-03T00:27:04.677Z,95.40
2018-06-03T00:29:32.278Z,95.40
2018-06-03T00:31:59.756Z,95.40
2018-06-03T00:34:28.065Z,95.30
2018-06-03T00:36:55.549Z,95.30
2018-06-03T00:39:23.007Z,95.30
2018-06-03T00:41:50.493Z,95.30
2018-06-03T00:44:17.951Z,95.30
2018-06-03T00:46:45.444Z,95.20
2018-06-03T00:49:12.928Z,95.30
2018-06-03T00:51:40.421Z,95.30
2018-06-03T00:54:07.908Z,95.30
2018-06-03T00:56:47.123Z,95.30
2018-06-03T00:59:15.371Z,95.30
2018-06-03T01:01:42.855Z,95.30
2018-06-03T01:04:10.331Z,95.30
2018-06-03T01:06:37.796Z,95.30
2018-06-03T01:09:05.292Z,95.30
2018-06-03T01:11:32.779Z,95.30
2018-06-03T01:14:01.088Z,95.30
2018-06-03T01:16:28.556Z,95.20
2018-06-03T01:18:56.040Z,95.30
2018-06-03T01:21:23.528Z,95.30
2018-06-03T01:23:51.775Z,95.40
2018-06-03T01:26:19.236Z,95.30
2018-06-03T01:28:46.729Z,95.30
2018-06-03T01:31:14.972Z,95.30
2018-06-03T01:33:42.460Z,95.30
2018-06-03T01:36:10.704Z,95.40
2018-06-03T01:38:38.192Z,95.40
2018-06-03T01:41:06.451Z,95.40
2018-06-03T01:43:33.940Z,95.40
2018-06-03T01:46:01.409Z,95.40
2018-06-03T01:48:28.892Z,95.40
2018-06-03T01:50:56.348Z,95.40
2018-06-03T01:53:23.840Z,95.40
2018-06-03T01:55:52.081Z,95.40
2018-06-03T01:58:19.556Z,95.40
2018-06-03T02:00:47.040Z,95.40
2018-06-03T02:03:16.453Z,95.40
2018-06-03T02:05:43.936Z,95.40
2018-06-03T02:08:11.590Z,95.40
2018-06-03T02:10:39.076Z,95.40
2018-06-03T02:13:06.548Z,95.40
2018-06-03T02:15:34.041Z,95.40
2018-06-03T02:18:02.319Z,95.40
2018-06-03T02:20:29.829Z,95.40
2018-06-03T02:22:57.279Z,95.40
2018-06-03T02:25:24.739Z,95.40
2018-06-03T02:27:52.215Z,95.40
2018-06-03T02:30:19.707Z,95.40
2018-06-03T02:32:47.184Z,95.40
2018-06-03T02:35:14.662Z,95.40
2018-06-03T02:37:42.136Z,95.40
2018-06-03T02:40:09.589Z,95.40
2018-06-03T02:42:37.068Z,95.40
2018-06-03T02:45:05.291Z,95.50
2018-06-03T02:47:32.785Z,95.40
2018-06-03T02:50:00.240Z,95.70
2018-06-03T02:52:27.729Z,95.40
2018-06-03T02:54:55.972Z,95.50
2018-06-03T02:57:23.444Z,95.50
2018-06-03T02:59:50.908Z,95.50
2018-06-03T03:02:18.679Z,95.50
2018-06-03T03:04:46.905Z,95.50
2018-06-03T03:07:14.385Z,95.50
2018-06-03T03:09:41.856Z,95.50
2018-06-03T03:12:09.338Z,95.60
2018-06-03T03:14:36.828Z,95.50
2018-06-03T03:17:04.297Z,95.50
2018-06-03T03:19:31.780Z,95.60
2018-06-03T03:21:59.336Z,95.70
2018-06-03T03:24:26.809Z,95.60
2018-06-03T03:26:54.316Z,96.00
2018-06-03T03:29:22.596Z,95.70
2018-06-03T03:31:50.089Z,95.70
2018-06-03T03:34:17.541Z,95.80
2018-06-03T03:36:45.028Z,95.80
2018-06-03T03:39:13.256Z,95.80
2018-06-03T03:41:40.713Z,95.80
2018-06-03T03:44:08.202Z,95.80
2018-06-03T03:46:35.665Z,95.80
2018-06-03T03:49:03.930Z,95.90
2018-06-03T03:51:31.405Z,95.80
2018-06-03T03:53:59.702Z,95.80
2018-06-03T03:56:27.924Z,96.10
2018-06-03T03:58:55.397Z,95.80
2018-06-03T04:01:22.905Z,95.80
2018-06-03T04:03:50.364Z,95.80
2018-06-03T04:06:17.842Z,95.80
2018-06-03T04:08:45.333Z,95.80
2018-06-03T04:11:12.802Z,95.80
2018-06-03T04:14:10.152Z,95.80
2018-06-03T04:16:38.436Z,95.80
2018-06-03T04:19:06.795Z,95.70
2018-06-03T04:21:35.117Z,95.70
2018-06-03T04:24:03.465Z,95.70
2018-06-03T04:26:31.810Z,95.70
2018-06-03T04:29:00.165Z,95.70
2018-06-03T04:31:28.491Z,95.60
2018-06-03T04:33:56.811Z,95.60
2018-06-03T04:36:25.096Z,95.60
2018-06-03T04:38:53.432Z,95.70
2018-06-03T04:41:21.827Z,95.70
2018-06-03T04:43:50.092Z,95.70
2018-06-03T04:46:18.433Z,95.70
2018-06-03T04:48:46.834Z,95.60
2018-06-03T04:51:15.110Z,95.60
2018-06-03T04:53:43.498Z,95.50
2018-06-03T04:56:11.794Z,95.50
2018-06-03T04:58:41.081Z,95.50
2018-06-03T05:01:09.601Z,95.50
2018-06-03T05:03:37.926Z,95.40
2018-06-03T05:06:06.589Z,95.40
2018-06-03T05:08:34.900Z,95.30
2018-06-03T05:11:03.222Z,95.40
2018-06-03T05:13:31.635Z,95.30
2018-06-03T05:15:59.999Z,95.30
2018-06-03T05:18:28.360Z,95.20
2018-06-03T05:20:56.714Z,95.10
2018-06-03T05:23:25.091Z,95.10
2018-06-03T05:25:53.438Z,94.90
2018-06-03T05:28:21.733Z,94.90
2018-06-03T05:30:56.393Z,94.90
2018-06-03T05:33:24.737Z,94.90
2018-06-03T05:35:53.052Z,94.90
2018-06-03T05:38:21.392Z,94.80
2018-06-03T05:40:49.705Z,94.80
2018-06-03T05:43:18.036Z,94.70
2018-06-03T05:45:46.375Z,94.70
2018-06-03T05:48:14.660Z,94.60
2018-06-03T05:50:43.020Z,94.50
2018-06-03T05:53:11.371Z,94.50
2018-06-03T05:55:39.649Z,94.50
2018-06-03T05:58:08.073Z,94.30
2018-06-03T06:03:04.445Z,94.40
2018-06-03T06:05:32.759Z,94.40
2018-06-03T06:08:01.109Z,94.20
2018-06-03T06:10:29.500Z,94.10
2018-06-03T06:12:57.865Z,93.90
2018-06-03T06:15:26.206Z,93.90
2018-06-03T06:17:54.569Z,93.70
2018-06-03T06:20:22.908Z,93.60
2018-06-03T06:22:51.248Z,93.70
2018-06-03T06:25:19.540Z,93.70
2018-06-03T06:27:47.879Z,93.70
2018-06-03T06:30:16.204Z,93.70
2018-06-03T06:32:44.527Z,93.30
2018-06-03T06:35:12.873Z,93.30
2018-06-03T06:37:41.189Z,93.30
2018-06-03T06:40:09.526Z,93.30
2018-06-03T06:42:37.905Z,93.30
2018-06-03T06:45:06.240Z,93.20
2018-06-03T06:47:34.540Z,93.10
2018-06-03T06:50:02.995Z,93.10
2018-06-03T06:52:31.264Z,93.00
2018-06-03T06:54:59.673Z,93.00
2018-06-03T07:02:24.205Z,92.80
2018-06-03T07:04:52.544Z,92.50
2018-06-03T07:07:20.867Z,92.40
2018-06-03T07:09:49.178Z,92.40
2018-06-03T07:12:17.513Z,92.30
2018-06-03T07:14:45.832Z,92.10
2018-06-03T07:17:14.197Z,92.10
2018-06-03T07:19:42.536Z,92.10
2018-06-03T07:22:10.909Z,92.10
2018-06-03T07:24:39.248Z,92.10
2018-06-03T07:27:07.618Z,92.00
2018-06-03T07:29:35.980Z,91.80
2018-06-03T07:32:04.366Z,91.80
2018-06-03T07:34:32.741Z,91.80
2018-06-03T07:37:01.088Z,91.40
2018-06-03T07:39:29.649Z,91.40
2018-06-03T07:41:58.738Z,91.30
2018-06-03T07:44:27.051Z,91.00
2018-06-03T07:46:55.376Z,90.80
2018-06-03T07:49:23.748Z,90.80
2018-06-03T07:51:52.085Z,90.90
2018-06-03T07:54:20.437Z,91.00
2018-06-03T07:56:48.733Z,90.90
2018-06-03T07:59:17.064Z,91.10
2018-06-03T08:01:45.464Z,91.20
2018-06-03T08:04:13.858Z,91.00
2018-06-03T08:09:10.256Z,90.60
2018-06-03T08:11:38.580Z,90.50
2018-06-03T08:14:06.873Z,89.80
2018-06-03T08:16:35.228Z,89.50
2018-06-03T08:19:03.556Z,89.00
2018-06-03T08:21:31.853Z,88.30
2018-06-03T08:24:00.416Z,88.10
2018-06-03T08:26:29.791Z,88.10
2018-06-03T08:28:58.096Z,88.40
2018-06-03T08:31:26.525Z,88.50
2018-06-03T08:33:54.850Z,88.60
2018-06-03T08:36:23.232Z,88.60
2018-06-03T08:38:51.556Z,88.60
2018-06-03T08:43:54.613Z,88.30
2018-06-03T08:46:22.988Z,87.70
2018-06-03T08:48:51.297Z,87.20
2018-06-03T08:51:19.666Z,86.70
2018-06-03T08:53:48.093Z,86.20
2018-06-03T08:56:16.530Z,86.30
2018-06-03T08:58:44.875Z,85.50
2018-06-03T09:01:13.236Z,85.20
2018-06-03T09:03:41.740Z,85.20
2018-06-03T09:06:10.299Z,85.40
2018-06-03T09:08:38.604Z,85.30
2018-06-03T09:11:06.933Z,85.40
2018-06-03T09:16:03.303Z,85.20
2018-06-03T09:18:31.652Z,85.00
2018-06-03T09:20:59.991Z,84.60
2018-06-03T09:23:28.322Z,84.40
2018-06-03T09:25:56.659Z,84.40
2018-06-03T09:28:25.041Z,83.70
2018-06-03T09:30:58.780Z,84.10
2018-06-03T09:33:27.157Z,83.40
2018-06-03T09:38:25.323Z,82.30
2018-06-03T09:40:53.757Z,81.70
2018-06-03T09:43:22.104Z,81.50
2018-06-03T09:45:50.501Z,81.60
2018-06-03T09:48:18.898Z,81.80
2018-06-03T09:50:47.255Z,81.70
2018-06-03T09:53:15.602Z,81.30
2018-06-03T09:55:43.902Z,81.00
2018-06-03T10:03:08.309Z,80.70
2018-06-03T10:05:37.044Z,80.60
2018-06-03T10:08:05.438Z,80.60
2018-06-03T10:10:33.756Z,78.90
2018-06-03T10:13:02.262Z,78.20
2018-06-03T10:15:30.584Z,77.70
2018-06-03T10:17:58.958Z,77.90
2018-06-03T10:20:27.330Z,77.50
2018-06-03T10:22:55.657Z,77.60
2018-06-03T10:25:23.985Z,76.70
2018-06-03T10:27:52.276Z,75.80
2018-06-03T10:30:20.578Z,75.20
2018-06-03T10:32:48.949Z,73.70
2018-06-03T10:35:17.333Z,73.30
2018-06-03T10:37:45.684Z,72.70
2018-06-03T10:42:42.261Z,72.00
2018-06-03T10:45:10.635Z,71.70
2018-06-03T10:47:38.960Z,70.90
2018-06-03T10:50:07.309Z,71.00
2018-06-03T10:52:35.716Z,71.30
2018-06-03T10:55:04.077Z,71.40
2018-06-03T10:57:32.388Z,71.20
2018-06-03T11:00:00.768Z,71.40
2018-06-03T11:02:29.068Z,72.10
2018-06-03T11:04:57.401Z,71.40
2018-06-03T11:07:25.737Z,71.20
2018-06-03T11:09:54.056Z,71.50
2018-06-03T11:12:22.401Z,71.70
2018-06-03T11:17:18.857Z,71.30
2018-06-03T11:19:47.388Z,71.40
2018-06-03T11:22:15.715Z,71.60
2018-06-03T11:24:44.065Z,71.60
2018-06-03T11:27:12.357Z,71.20
2018-06-03T11:29:40.683Z,71.30
2018-06-03T11:32:08.994Z,72.00
2018-06-03T11:34:37.341Z,72.30
2018-06-03T11:37:05.672Z,72.90
2018-06-03T11:39:34.024Z,73.30
2018-06-03T11:42:02.457Z,74.10
2018-06-03T11:44:30.780Z,74.60
2018-06-03T11:46:59.153Z,74.90
2018-06-03T11:49:27.437Z,75.10
2018-06-03T11:51:55.811Z,75.40
2018-06-03T11:54:24.182Z,75.30
2018-06-03T11:57:01.812Z,75.60
2018-06-03T12:02:15.445Z,75.40
2018-06-03T12:04:43.780Z,74.80
2018-06-03T12:07:12.129Z,75.00
2018-06-03T12:12:08.529Z,75.00
2018-06-03T12:14:36.841Z,75.10
2018-06-03T12:17:05.229Z,74.30
2018-06-03T12:19:33.632Z,74.20
2018-06-03T12:22:01.937Z,74.20
2018-06-03T12:24:30.288Z,74.30
2018-06-03T12:26:58.597Z,74.80
2018-06-03T12:29:26.941Z,75.00
2018-06-03T12:31:55.394Z,74.60
2018-06-03T12:36:51.920Z,74.80
2018-06-03T12:39:20.234Z,75.00
2018-06-03T12:41:48.600Z,75.10
2018-06-03T12:44:16.915Z,75.20
2018-06-03T12:46:45.244Z,75.70
2018-06-03T12:49:13.622Z,75.10
2018-06-03T12:51:41.972Z,75.10
2018-06-03T12:54:10.847Z,74.60
2018-06-03T12:56:39.180Z,74.00
2018-06-03T12:59:07.590Z,73.60
2018-06-03T13:01:35.916Z,73.80
2018-06-03T13:04:04.232Z,73.80
2018-06-03T13:06:32.532Z,73.30
2018-06-03T13:09:00.870Z,73.40
2018-06-03T13:11:29.587Z,73.00
2018-06-03T13:13:58.114Z,72.60
2018-06-03T13:16:26.478Z,72.50
2018-06-03T13:18:54.828Z,71.20
2018-06-03T13:21:23.177Z,70.30
2018-06-03T13:26:19.556Z,68.60
2018-06-03T13:28:47.917Z,68.50
2018-06-03T13:31:16.251Z,69.10
2018-06-03T13:33:44.625Z,69.20
2018-06-03T13:36:12.943Z,69.00
2018-06-03T13:38:41.309Z,68.60
2018-06-03T13:41:09.605Z,68.90
2018-06-03T13:43:37.900Z,69.20
2018-06-03T13:46:06.252Z,69.30
2018-06-03T13:48:34.593Z,69.10
2018-06-03T13:51:03.033Z,68.70
2018-06-03T13:53:31.402Z,68.10
2018-06-03T13:55:59.744Z,68.00
2018-06-03T13:58:29.720Z,67.60
2018-06-03T14:00:58.059Z,66.60
2018-06-03T14:03:27.442Z,66.40
2018-06-03T14:05:55.750Z,66.50
2018-06-03T14:08:24.082Z,67.00
2018-06-03T14:10:52.483Z,67.00
2018-06-03T14:13:20.799Z,66.80
2018-06-03T14:15:49.217Z,65.90
2018-06-03T14:18:17.577Z,65.60
2018-06-03T14:20:45.927Z,65.40
2018-06-03T14:23:14.222Z,65.70
2018-06-03T14:25:42.557Z,65.70
2018-06-03T14:28:10.957Z,65.90
2018-06-03T14:30:39.301Z,66.10
2018-06-03T14:33:07.685Z,66.80
2018-06-03T14:35:36.008Z,66.40
2018-06-03T14:38:04.572Z,66.70
2018-06-03T14:40:32.948Z,66.40
2018-06-03T14:43:01.305Z,66.70
2018-06-03T14:45:29.684Z,67.10
2018-06-03T14:47:58.044Z,67.00
2018-06-03T14:50:26.404Z,67.00
2018-06-03T14:52:54.745Z,66.50
2018-06-03T14:55:23.101Z,66.80
2018-06-03T14:57:51.507Z,67.60
2018-06-03T15:00:19.755Z,67.60
2018-06-03T15:02:48.134Z,67.40
2018-06-03T15:05:16.456Z,66.90
2018-06-03T15:07:44.845Z,68.00
2018-06-03T15:10:13.209Z,67.70
2018-06-03T15:12:41.537Z,68.20
2018-06-03T15:15:09.876Z,68.50
2018-06-03T15:17:38.246Z,68.40
2018-06-03T15:22:34.761Z,68.50
2018-06-03T15:25:03.219Z,68.30
2018-06-03T15:29:59.686Z,68.80
2018-06-03T15:32:28.674Z,68.80
2018-06-03T15:37:25.158Z,69.00
2018-06-03T15:39:53.452Z,69.00
2018-06-03T15:42:21.981Z,68.90
2018-06-03T15:44:50.330Z,68.80
2018-06-03T15:47:18.688Z,68.80
2018-06-03T15:49:47.061Z,68.90
2018-06-03T15:52:15.409Z,69.10
2018-06-03T15:54:43.807Z,69.60
2018-06-03T15:57:12.158Z,69.60
2018-06-03T15:59:40.568Z,69.20
2018-06-03T16:02:08.884Z,69.30
2018-06-03T16:04:37.257Z,69.20
2018-06-03T16:07:05.652Z,69.30
2018-06-03T16:09:34.049Z,69.30
2018-06-03T16:12:02.386Z,69.70
2018-06-03T16:14:30.769Z,69.90
2018-06-03T16:16:59.238Z,69.80
2018-06-03T16:19:27.583Z,70.10
2018-06-03T16:21:55.984Z,70.30
2018-06-03T16:24:24.422Z,70.70
2018-06-03T16:26:53.125Z,70.80
2018-06-03T16:29:21.412Z,70.90
2018-06-03T16:31:49.744Z,71.40
2018-06-03T16:34:18.045Z,71.30
2018-06-03T16:36:46.580Z,71.20
2018-06-03T16:39:14.897Z,71.60
2018-06-03T16:41:43.244Z,71.60
2018-06-03T16:44:11.532Z,71.60
2018-06-03T16:46:40.468Z,71.90
2018-06-03T16:49:08.930Z,72.40
2018-06-03T16:51:37.357Z,72.40
2018-06-03T16:54:05.797Z,71.80
2018-06-03T16:56:34.217Z,71.90
2018-06-03T16:59:02.669Z,72.00
2018-06-03T17:01:31.074Z,71.70
2018-06-03T17:03:59.404Z,71.80
2018-06-03T17:06:27.736Z,71.50
2018-06-03T17:08:56.096Z,71.40
2018-06-03T17:11:24.461Z,71.50
2018-06-03T17:13:53.143Z,71.80
2018-06-03T17:16:21.549Z,72.40
2018-06-03T17:18:49.935Z,72.30
2018-06-03T17:21:18.296Z,72.30
2018-06-03T17:23:46.687Z,72.20
2018-06-03T17:26:15.046Z,72.50
2018-06-03T17:28:43.396Z,72.10
2018-06-03T17:31:11.728Z,72.10
2018-06-03T17:33:40.077Z,72.10
2018-06-03T17:36:08.400Z,71.70
2018-06-03T17:38:36.805Z,72.00
2018-06-03T17:41:05.237Z,72.30
2018-06-03T17:43:33.583Z,72.60
2018-06-03T17:46:01.948Z,72.90
2018-06-03T17:48:30.325Z,72.60
2018-06-03T17:50:58.672Z,73.00
2018-06-03T17:53:26.977Z,73.20
2018-06-03T17:55:55.302Z,72.80
2018-06-03T17:58:23.660Z,72.30
2018-06-03T18:00:52.044Z,72.10
2018-06-03T18:03:20.349Z,72.40
2018-06-03T18:05:48.799Z,72.40
2018-06-03T18:08:17.096Z,72.60
2018-06-03T18:10:45.488Z,72.50
2018-06-03T18:13:13.855Z,72.30
2018-06-03T18:15:42.384Z,72.50
2018-06-03T18:18:10.736Z,72.60
2018-06-03T18:20:39.072Z,73.10
2018-06-03T18:23:07.421Z,73.50
2018-06-03T18:25:35.836Z,73.90
2018-06-03T18:28:04.189Z,74.10
2018-06-03T18:30:32.558Z,74.50
2018-06-03T18:33:00.898Z,74.40
2018-06-03T18:35:29.253Z,74.50
2018-06-03T18:37:57.637Z,74.80
2018-06-03T18:40:25.936Z,75.30
2018-06-03T18:42:54.307Z,75.60
2018-06-03T18:45:22.664Z,75.60
2018-06-03T18:47:51.067Z,75.40
2018-06-03T18:50:19.431Z,75.50
2018-06-03T18:52:47.803Z,76.30
2018-06-03T18:55:16.125Z,76.10
2018-06-03T18:57:44.446Z,76.20
2018-06-03T19:00:12.747Z,77.50
2018-06-03T19:02:41.076Z,76.90
2018-06-03T19:05:09.521Z,77.10
2018-06-03T19:07:37.889Z,77.00
2018-06-03T19:10:06.230Z,76.80
2018-06-03T19:12:34.572Z,77.40
2018-06-03T19:15:03.186Z,77.80
2018-06-03T19:17:31.517Z,78.00
2018-06-03T19:19:59.856Z,78.10
2018-06-03T19:22:28.200Z,78.50
2018-06-03T19:24:56.548Z,78.50
2018-06-03T19:27:24.890Z,78.70
2018-06-03T19:29:53.267Z,79.20
2018-06-03T19:32:21.560Z,79.60
2018-06-03T19:34:49.940Z,80.20
2018-06-03T19:37:18.326Z,80.60
2018-06-03T19:39:46.688Z,80.70
2018-06-03T19:42:15.250Z,80.90
2018-06-03T19:47:11.613Z,81.30
2018-06-03T19:49:39.900Z,81.60
2018-06-03T19:52:08.286Z,82.00
2018-06-03T19:54:36.754Z,82.10
2018-06-03T19:57:05.411Z,82.20
2018-06-03T19:59:33.720Z,82.20
2018-06-03T20:02:02.104Z,82.60
2018-06-03T20:04:30.451Z,83.00
2018-06-03T20:09:26.943Z,83.60
2018-06-03T20:11:55.314Z,84.00
2018-06-03T20:14:23.682Z,84.40
2018-06-03T20:16:51.999Z,84.50
2018-06-03T20:19:20.321Z,84.60
2018-06-03T20:21:48.705Z,84.90
2018-06-03T20:24:16.944Z,85.40
2018-06-03T20:26:46.491Z,85.70
2018-06-03T20:29:14.896Z,85.70
2018-06-03T20:31:43.222Z,86.00
2018-06-03T20:34:11.578Z,86.30
2018-06-03T20:36:39.913Z,86.60
2018-06-03T20:39:08.589Z,86.80
2018-06-03T20:41:36.892Z,86.90
2018-06-03T20:44:05.236Z,87.20
2018-06-03T20:46:33.654Z,87.20
2018-06-03T20:49:02.061Z,87.00
2018-06-03T20:51:30.369Z,87.20
2018-06-03T20:53:58.797Z,87.50
2018-06-03T20:56:27.268Z,87.90
2018-06-03T20:58:55.564Z,88.10
2018-06-03T21:01:24.026Z,88.30
2018-06-03T21:03:52.400Z,88.50
2018-06-03T21:06:20.761Z,88.60
2018-06-03T21:08:49.115Z,88.60
2018-06-03T21:13:45.587Z,89.10
2018-06-03T21:16:14.125Z,89.30
2018-06-03T21:18:43.413Z,89.50
2018-06-03T21:21:11.753Z,89.60
2018-06-03T21:23:40.108Z,89.80
2018-06-03T21:26:08.453Z,90.00
2018-06-03T21:28:36.883Z,90.10
2018-06-03T21:31:05.184Z,90.10
2018-06-03T21:33:33.516Z,90.10
2018-06-03T21:38:29.872Z,90.20
2018-06-03T21:40:58.184Z,90.30
2018-06-03T21:43:26.548Z,90.40
2018-06-03T21:45:54.860Z,90.30
2018-06-03T21:48:23.222Z,90.40
2018-06-03T21:50:51.586Z,90.40
2018-06-03T21:53:19.888Z,90.70
2018-06-03T21:55:48.294Z,90.50
2018-06-03T21:58:16.608Z,90.50
2018-06-03T22:00:44.940Z,90.60
2018-06-03T22:03:13.310Z,90.70
2018-06-03T22:08:09.750Z,90.80
2018-06-03T22:10:38.088Z,90.80
2018-06-03T22:13:06.488Z,90.90
2018-06-03T22:15:34.807Z,90.90
2018-06-03T22:18:03.155Z,91.00
2018-06-03T22:20:31.460Z,91.00
2018-06-03T22:22:59.761Z,91.00
2018-06-03T22:25:28.113Z,91.00
2018-06-03T22:27:56.445Z,91.00
2018-06-03T22:30:24.752Z,91.10
2018-06-03T22:32:53.115Z,91.20
2018-06-03T22:35:21.640Z,91.20
2018-06-03T22:40:18.039Z,91.30
2018-06-03T22:42:46.364Z,91.30
2018-06-03T22:45:14.717Z,91.40
2018-06-03T22:47:43.025Z,91.40
2018-06-03T22:50:11.383Z,91.60
2018-06-03T22:52:39.675Z,91.50
2018-06-03T22:55:08.004Z,91.50
2018-06-03T22:57:45.913Z,91.50
2018-06-03T23:00:22.246Z,91.60
2018-06-03T23:02:56.106Z,91.70
2018-06-03T23:05:24.531Z,91.70
2018-06-03T23:07:53.145Z,91.70
2018-06-03T23:10:21.760Z,91.80
2018-06-03T23:12:50.140Z,91.80
2018-06-03T23:15:18.455Z,91.90
2018-06-03T23:17:46.811Z,91.90
2018-06-03T23:20:15.147Z,92.00
2018-06-03T23:22:43.486Z,91.90
2018-06-03T23:25:11.813Z,92.00
2018-06-03T23:27:40.120Z,92.00
2018-06-03T23:30:08.461Z,92.00
2018-06-03T23:32:36.835Z,92.10
2018-06-03T23:35:05.212Z,92.10
2018-06-03T23:37:33.504Z,92.10
2018-06-03T23:40:01.820Z,92.10
2018-06-03T23:42:30.152Z,92.20
2018-06-03T23:44:58.460Z,92.20
2018-06-03T23:49:54.824Z,92.30
2018-06-03T23:52:23.172Z,92.60
2018-06-03T23:54:51.534Z,92.30
2018-06-03T23:57:19.845Z,92.30
2018-06-03T23:59:48.200Z,92.30
